sensor_id;sensor_type;location;lat;lon;timestamp;noise_LAeq;noise_LA_min;noise_LA_max;noise_LA01;noise_LA95
69608;Laerm;57251;52.248;4.812;2023-05-07T00:00:09;36.70;34.23;40.54;;
69608;Laerm;57251;52.248;4.812;2023-05-07T00:00:21;36.28;34.77;43.34;;
69608;Laerm;57251;52.248;4.812;2023-05-07T00:00:31;37.12;34.05;45.00;;
69608;Laerm;57251;52.248;4.812;2023-05-07T00:00:41;39.08;34.20;45.52;;
69608;Laerm;57251;52.248;4.812;2023-05-07T00:00:52;37.63;34.38;44.92;;
69608;Laerm;57251;52.248;4.812;2023-05-07T00:01:02;35.60;33.01;46.60;;
69608;Laerm;57251;52.248;4.812;2023-05-07T00:01:13;35.70;33.62;43.47;;
69608;Laerm;57251;52.248;4.812;2023-05-07T00:01:23;37.09;34.19;47.73;;
69608;Laerm;57251;52.248;4.812;2023-05-07T00:01:33;35.08;33.33;38.30;;
69608;Laerm;57251;52.248;4.812;2023-05-07T00:01:44;35.48;33.43;38.35;;
69608;Laerm;57251;52.248;4.812;2023-05-07T00:01:54;35.80;33.84;43.49;;
69608;Laerm;57251;52.248;4.812;2023-05-07T00:02:04;35.87;34.27;40.58;;
69608;Laerm;57251;52.248;4.812;2023-05-07T00:02:14;36.06;33.83;40.67;;
69608;Laerm;57251;52.248;4.812;2023-05-07T00:02:25;35.98;33.73;41.42;;
69608;Laerm;57251;52.248;4.812;2023-05-07T00:02:35;36.76;34.63;41.42;;
69608;Laerm;57251;52.248;4.812;2023-05-07T00:02:46;36.19;34.52;44.96;;
69608;Laerm;57251;52.248;4.812;2023-05-07T00:02:56;37.08;34.56;43.01;;
69608;Laerm;57251;52.248;4.812;2023-05-07T00:03:06;36.39;34.03;41.01;;
69608;Laerm;57251;52.248;4.812;2023-05-07T00:03:17;36.74;34.76;40.06;;
69608;Laerm;57251;52.248;4.812;2023-05-07T00:03:27;36.74;34.70;41.23;;
69608;Laerm;57251;52.248;4.812;2023-05-07T00:03:37;36.31;34.38;40.42;;
69608;Laerm;57251;52.248;4.812;2023-05-07T00:03:47;37.14;34.31;46.10;;
69608;Laerm;57251;52.248;4.812;2023-05-07T00:03:58;36.35;34.09;39.28;;
69608;Laerm;57251;52.248;4.812;2023-05-07T00:04:08;36.16;33.86;40.66;;
69608;Laerm;57251;52.248;4.812;2023-05-07T00:04:18;38.65;34.67;44.10;;
69608;Laerm;57251;52.248;4.812;2023-05-07T00:04:28;37.73;35.50;42.48;;
69608;Laerm;57251;52.248;4.812;2023-05-07T00:04:45;36.88;33.77;47.95;;
69608;Laerm;57251;52.248;4.812;2023-05-07T00:04:55;35.82;33.59;39.11;;
69608;Laerm;57251;52.248;4.812;2023-05-07T00:05:06;35.96;33.61;40.12;;
69608;Laerm;57251;52.248;4.812;2023-05-07T00:05:16;36.66;33.73;42.11;;
69608;Laerm;57251;52.248;4.812;2023-05-07T00:05:27;36.40;34.13;40.46;;
69608;Laerm;57251;52.248;4.812;2023-05-07T00:05:37;37.44;34.35;48.92;;
69608;Laerm;57251;52.248;4.812;2023-05-07T00:05:47;36.67;33.63;44.34;;
69608;Laerm;57251;52.248;4.812;2023-05-07T00:05:58;39.06;34.23;51.89;;
69608;Laerm;57251;52.248;4.812;2023-05-07T00:06:08;38.95;33.98;50.63;;
69608;Laerm;57251;52.248;4.812;2023-05-07T00:06:18;36.63;33.61;46.08;;
69608;Laerm;57251;52.248;4.812;2023-05-07T00:06:29;36.14;33.28;41.02;;
69608;Laerm;57251;52.248;4.812;2023-05-07T00:06:39;37.25;34.00;45.06;;
69608;Laerm;57251;52.248;4.812;2023-05-07T00:06:50;36.66;33.97;43.73;;
69608;Laerm;57251;52.248;4.812;2023-05-07T00:07:01;35.79;33.83;41.37;;
69608;Laerm;57251;52.248;4.812;2023-05-07T00:07:11;36.50;33.89;41.09;;
69608;Laerm;57251;52.248;4.812;2023-05-07T00:07:21;37.13;33.98;43.84;;
69608;Laerm;57251;52.248;4.812;2023-05-07T00:07:32;36.88;34.56;43.40;;
69608;Laerm;57251;52.248;4.812;2023-05-07T00:07:42;36.14;33.15;41.69;;
69608;Laerm;57251;52.248;4.812;2023-05-07T00:07:52;36.35;33.05;42.92;;
69608;Laerm;57251;52.248;4.812;2023-05-07T00:08:02;37.48;34.19;45.57;;
69608;Laerm;57251;52.248;4.812;2023-05-07T00:08:13;39.16;35.12;43.00;;
69608;Laerm;57251;52.248;4.812;2023-05-07T00:08:23;37.43;34.14;43.35;;
69608;Laerm;57251;52.248;4.812;2023-05-07T00:08:33;36.41;33.65;41.42;;
69608;Laerm;57251;52.248;4.812;2023-05-07T00:08:43;36.52;33.58;40.65;;
69608;Laerm;57251;52.248;4.812;2023-05-07T00:08:53;37.26;34.20;43.24;;
69608;Laerm;57251;52.248;4.812;2023-05-07T00:09:04;37.52;34.34;42.55;;
69608;Laerm;57251;52.248;4.812;2023-05-07T00:09:14;37.09;33.66;43.86;;
69608;Laerm;57251;52.248;4.812;2023-05-07T00:09:24;36.74;34.36;45.20;;
69608;Laerm;57251;52.248;4.812;2023-05-07T00:09:35;36.64;33.94;45.53;;
69608;Laerm;57251;52.248;4.812;2023-05-07T00:09:45;37.43;34.04;44.46;;
69608;Laerm;57251;52.248;4.812;2023-05-07T00:09:56;35.59;33.55;39.93;;
69608;Laerm;57251;52.248;4.812;2023-05-07T00:10:06;36.06;33.67;43.48;;
69608;Laerm;57251;52.248;4.812;2023-05-07T00:10:16;37.15;33.65;43.32;;
69608;Laerm;57251;52.248;4.812;2023-05-07T00:10:27;36.34;33.08;40.50;;
69608;Laerm;57251;52.248;4.812;2023-05-07T00:10:37;38.62;34.83;50.55;;
69608;Laerm;57251;52.248;4.812;2023-05-07T00:10:47;37.74;34.32;47.53;;
69608;Laerm;57251;52.248;4.812;2023-05-07T00:10:57;35.94;33.84;39.69;;
69608;Laerm;57251;52.248;4.812;2023-05-07T00:11:07;36.25;33.61;41.17;;
69608;Laerm;57251;52.248;4.812;2023-05-07T00:11:18;35.90;33.97;43.18;;
69608;Laerm;57251;52.248;4.812;2023-05-07T00:11:28;36.36;34.15;43.59;;
69608;Laerm;57251;52.248;4.812;2023-05-07T00:11:38;36.14;33.72;43.63;;
69608;Laerm;57251;52.248;4.812;2023-05-07T00:11:48;36.33;33.47;42.27;;
69608;Laerm;57251;52.248;4.812;2023-05-07T00:11:58;38.06;34.26;50.98;;
69608;Laerm;57251;52.248;4.812;2023-05-07T00:12:09;39.85;34.85;48.52;;
69608;Laerm;57251;52.248;4.812;2023-05-07T00:12:19;39.83;35.02;53.20;;
69608;Laerm;57251;52.248;4.812;2023-05-07T00:12:29;36.74;34.62;40.81;;
69608;Laerm;57251;52.248;4.812;2023-05-07T00:12:43;38.04;34.21;44.73;;
69608;Laerm;57251;52.248;4.812;2023-05-07T00:12:53;37.94;34.31;47.81;;
69608;Laerm;57251;52.248;4.812;2023-05-07T00:13:04;37.06;33.81;43.52;;
69608;Laerm;57251;52.248;4.812;2023-05-07T00:13:14;36.04;33.43;46.38;;
69608;Laerm;57251;52.248;4.812;2023-05-07T00:13:25;37.25;33.37;50.59;;
69608;Laerm;57251;52.248;4.812;2023-05-07T00:13:35;37.83;33.74;52.88;;
69608;Laerm;57251;52.248;4.812;2023-05-07T00:13:45;42.36;33.40;60.69;;
69608;Laerm;57251;52.248;4.812;2023-05-07T00:13:56;42.09;33.64;59.97;;
69608;Laerm;57251;52.248;4.812;2023-05-07T00:14:06;35.05;33.50;37.17;;
69608;Laerm;57251;52.248;4.812;2023-05-07T00:14:16;35.24;33.36;37.02;;
69608;Laerm;57251;52.248;4.812;2023-05-07T00:14:26;35.72;34.03;39.14;;
69608;Laerm;57251;52.248;4.812;2023-05-07T00:14:36;37.21;34.57;45.23;;
69608;Laerm;57251;52.248;4.812;2023-05-07T00:14:47;39.31;34.08;59.19;;
69608;Laerm;57251;52.248;4.812;2023-05-07T00:14:57;43.63;33.24;62.50;;
69608;Laerm;57251;52.248;4.812;2023-05-07T00:15:07;36.38;33.69;40.27;;
69608;Laerm;57251;52.248;4.812;2023-05-07T00:15:17;37.27;34.86;40.63;;
69608;Laerm;57251;52.248;4.812;2023-05-07T00:15:28;36.90;34.91;41.74;;
69608;Laerm;57251;52.248;4.812;2023-05-07T00:15:38;38.79;35.33;48.70;;
69608;Laerm;57251;52.248;4.812;2023-05-07T00:15:48;38.22;35.45;41.59;;
69608;Laerm;57251;52.248;4.812;2023-05-07T00:15:58;37.41;35.09;43.50;;
69608;Laerm;57251;52.248;4.812;2023-05-07T00:16:08;38.87;35.92;44.20;;
69608;Laerm;57251;52.248;4.812;2023-05-07T00:16:19;38.99;35.69;46.56;;
69608;Laerm;57251;52.248;4.812;2023-05-07T00:16:29;39.55;35.52;49.95;;
69608;Laerm;57251;52.248;4.812;2023-05-07T00:16:39;36.04;33.42;43.26;;
69608;Laerm;57251;52.248;4.812;2023-05-07T00:16:50;36.36;33.83;43.33;;
69608;Laerm;57251;52.248;4.812;2023-05-07T00:17:00;36.12;33.49;42.91;;
69608;Laerm;57251;52.248;4.812;2023-05-07T00:17:10;36.25;33.49;43.50;;
69608;Laerm;57251;52.248;4.812;2023-05-07T00:17:20;35.12;33.45;40.27;;
69608;Laerm;57251;52.248;4.812;2023-05-07T00:17:33;36.74;33.41;44.33;;
69608;Laerm;57251;52.248;4.812;2023-05-07T00:17:43;36.76;33.17;48.89;;
69608;Laerm;57251;52.248;4.812;2023-05-07T00:17:53;40.29;34.03;57.82;;
69608;Laerm;57251;52.248;4.812;2023-05-07T00:18:04;36.98;34.18;42.28;;
69608;Laerm;57251;52.248;4.812;2023-05-07T00:18:14;37.59;34.37;46.21;;
69608;Laerm;57251;52.248;4.812;2023-05-07T00:18:24;37.47;34.05;45.80;;
69608;Laerm;57251;52.248;4.812;2023-05-07T00:18:35;35.81;33.52;42.10;;
69608;Laerm;57251;52.248;4.812;2023-05-07T00:18:45;36.94;33.84;44.00;;
69608;Laerm;57251;52.248;4.812;2023-05-07T00:18:55;40.26;35.40;49.58;;
69608;Laerm;57251;52.248;4.812;2023-05-07T00:19:06;37.23;35.23;41.82;;
69608;Laerm;57251;52.248;4.812;2023-05-07T00:19:16;37.01;34.36;42.76;;
69608;Laerm;57251;52.248;4.812;2023-05-07T00:19:26;36.56;33.70;43.95;;
69608;Laerm;57251;52.248;4.812;2023-05-07T00:19:36;36.90;34.61;42.45;;
69608;Laerm;57251;52.248;4.812;2023-05-07T00:19:47;36.83;34.30;44.40;;
69608;Laerm;57251;52.248;4.812;2023-05-07T00:19:57;36.92;34.62;40.74;;
69608;Laerm;57251;52.248;4.812;2023-05-07T00:20:07;36.93;34.09;42.57;;
69608;Laerm;57251;52.248;4.812;2023-05-07T00:20:18;36.89;34.11;40.82;;
69608;Laerm;57251;52.248;4.812;2023-05-07T00:20:28;36.06;33.44;43.33;;
69608;Laerm;57251;52.248;4.812;2023-05-07T00:20:38;36.14;33.63;40.44;;
69608;Laerm;57251;52.248;4.812;2023-05-07T00:20:49;35.99;34.07;39.40;;
69608;Laerm;57251;52.248;4.812;2023-05-07T00:20:59;36.35;33.72;41.74;;
69608;Laerm;57251;52.248;4.812;2023-05-07T00:21:09;36.86;34.17;42.09;;
69608;Laerm;57251;52.248;4.812;2023-05-07T00:21:19;35.82;33.90;41.56;;
69608;Laerm;57251;52.248;4.812;2023-05-07T00:21:31;35.27;33.43;41.62;;
69608;Laerm;57251;52.248;4.812;2023-05-07T00:21:41;36.47;34.02;41.87;;
69608;Laerm;57251;52.248;4.812;2023-05-07T00:21:51;36.05;33.78;41.24;;
69608;Laerm;57251;52.248;4.812;2023-05-07T00:22:03;35.12;33.28;40.84;;
69608;Laerm;57251;52.248;4.812;2023-05-07T00:22:14;34.65;33.03;37.97;;
69608;Laerm;57251;52.248;4.812;2023-05-07T00:22:24;35.09;33.41;39.51;;
69608;Laerm;57251;52.248;4.812;2023-05-07T00:22:34;35.76;32.41;40.99;;
69608;Laerm;57251;52.248;4.812;2023-05-07T00:22:44;34.92;33.08;37.97;;
69608;Laerm;57251;52.248;4.812;2023-05-07T00:22:55;35.18;33.40;38.37;;
69608;Laerm;57251;52.248;4.812;2023-05-07T00:23:05;36.87;34.02;44.39;;
69608;Laerm;57251;52.248;4.812;2023-05-07T00:23:15;36.50;33.54;47.88;;
69608;Laerm;57251;52.248;4.812;2023-05-07T00:23:25;35.99;33.42;42.41;;
69608;Laerm;57251;52.248;4.812;2023-05-07T00:23:36;36.21;33.14;41.01;;
69608;Laerm;57251;52.248;4.812;2023-05-07T00:23:46;35.97;33.62;43.59;;
69608;Laerm;57251;52.248;4.812;2023-05-07T00:23:56;35.45;33.45;39.49;;
69608;Laerm;57251;52.248;4.812;2023-05-07T00:24:06;35.67;33.93;40.47;;
69608;Laerm;57251;52.248;4.812;2023-05-07T00:24:16;35.49;33.37;37.51;;
69608;Laerm;57251;52.248;4.812;2023-05-07T00:24:27;36.29;34.54;41.25;;
69608;Laerm;57251;52.248;4.812;2023-05-07T00:24:37;37.43;34.23;41.36;;
69608;Laerm;57251;52.248;4.812;2023-05-07T00:24:47;35.72;34.07;38.44;;
69608;Laerm;57251;52.248;4.812;2023-05-07T00:24:58;35.81;34.27;38.82;;
69608;Laerm;57251;52.248;4.812;2023-05-07T00:25:08;36.36;33.97;49.82;;
69608;Laerm;57251;52.248;4.812;2023-05-07T00:25:18;35.32;33.90;38.23;;
69608;Laerm;57251;52.248;4.812;2023-05-07T00:25:29;35.80;34.17;39.39;;
69608;Laerm;57251;52.248;4.812;2023-05-07T00:25:39;35.98;34.06;43.02;;
69608;Laerm;57251;52.248;4.812;2023-05-07T00:25:50;36.14;34.48;41.88;;
69608;Laerm;57251;52.248;4.812;2023-05-07T00:26:00;35.80;33.87;38.36;;
69608;Laerm;57251;52.248;4.812;2023-05-07T00:26:10;39.02;34.25;49.66;;
69608;Laerm;57251;52.248;4.812;2023-05-07T00:26:21;42.83;37.95;51.42;;
69608;Laerm;57251;52.248;4.812;2023-05-07T00:26:31;47.53;40.03;53.86;;
69608;Laerm;57251;52.248;4.812;2023-05-07T00:26:41;36.49;33.88;41.71;;
69608;Laerm;57251;52.248;4.812;2023-05-07T00:26:52;35.19;33.29;44.72;;
69608;Laerm;57251;52.248;4.812;2023-05-07T00:27:02;36.60;33.60;50.44;;
69608;Laerm;57251;52.248;4.812;2023-05-07T00:27:12;37.71;34.10;46.47;;
69608;Laerm;57251;52.248;4.812;2023-05-07T00:27:23;37.13;33.81;49.38;;
69608;Laerm;57251;52.248;4.812;2023-05-07T00:27:33;34.91;33.45;36.74;;
69608;Laerm;57251;52.248;4.812;2023-05-07T00:27:43;34.97;33.50;37.21;;
69608;Laerm;57251;52.248;4.812;2023-05-07T00:27:54;36.36;33.32;47.86;;
69608;Laerm;57251;52.248;4.812;2023-05-07T00:28:04;36.20;33.67;47.65;;
69608;Laerm;57251;52.248;4.812;2023-05-07T00:28:15;37.48;33.81;53.75;;
69608;Laerm;57251;52.248;4.812;2023-05-07T00:28:25;36.20;33.79;44.57;;
69608;Laerm;57251;52.248;4.812;2023-05-07T00:28:35;36.97;33.81;46.46;;
69608;Laerm;57251;52.248;4.812;2023-05-07T00:28:45;51.14;32.79;71.62;;
69608;Laerm;57251;52.248;4.812;2023-05-07T00:28:55;49.87;34.42;70.19;;
69608;Laerm;57251;52.248;4.812;2023-05-07T00:29:06;41.36;33.80;60.05;;
69608;Laerm;57251;52.248;4.812;2023-05-07T00:29:16;48.32;34.09;69.20;;
69608;Laerm;57251;52.248;4.812;2023-05-07T00:29:26;58.77;34.14;76.17;;
69608;Laerm;57251;52.248;4.812;2023-05-07T00:29:36;38.17;33.80;55.95;;
69608;Laerm;57251;52.248;4.812;2023-05-07T00:29:46;40.28;33.29;57.27;;
69608;Laerm;57251;52.248;4.812;2023-05-07T00:29:57;42.37;33.20;62.44;;
69608;Laerm;57251;52.248;4.812;2023-05-07T00:30:07;46.31;32.98;69.63;;
69608;Laerm;57251;52.248;4.812;2023-05-07T00:30:18;52.30;33.58;73.50;;
69608;Laerm;57251;52.248;4.812;2023-05-07T00:30:28;50.73;33.75;67.31;;
69608;Laerm;57251;52.248;4.812;2023-05-07T00:30:38;49.19;34.46;69.34;;
69608;Laerm;57251;52.248;4.812;2023-05-07T00:30:48;47.57;34.58;69.76;;
69608;Laerm;57251;52.248;4.812;2023-05-07T00:30:59;41.09;34.26;60.58;;
69608;Laerm;57251;52.248;4.812;2023-05-07T00:31:09;35.15;33.86;36.99;;
69608;Laerm;57251;52.248;4.812;2023-05-07T00:31:19;34.80;33.38;37.21;;
69608;Laerm;57251;52.248;4.812;2023-05-07T00:31:29;34.46;33.01;36.46;;
69608;Laerm;57251;52.248;4.812;2023-05-07T00:31:39;34.91;33.10;39.92;;
69608;Laerm;57251;52.248;4.812;2023-05-07T00:31:50;35.23;34.00;39.13;;
69608;Laerm;57251;52.248;4.812;2023-05-07T00:32:00;35.60;33.32;40.86;;
69608;Laerm;57251;52.248;4.812;2023-05-07T00:32:11;35.64;32.73;50.53;;
69608;Laerm;57251;52.248;4.812;2023-05-07T00:32:21;35.31;33.51;38.08;;
69608;Laerm;57251;52.248;4.812;2023-05-07T00:32:31;36.50;34.73;40.59;;
69608;Laerm;57251;52.248;4.812;2023-05-07T00:32:41;35.24;33.94;36.98;;
69608;Laerm;57251;52.248;4.812;2023-05-07T00:32:52;34.86;33.61;39.36;;
69608;Laerm;57251;52.248;4.812;2023-05-07T00:33:02;34.78;33.63;36.26;;
69608;Laerm;57251;52.248;4.812;2023-05-07T00:33:12;35.97;33.63;38.66;;
69608;Laerm;57251;52.248;4.812;2023-05-07T00:33:22;36.20;33.80;39.22;;
69608;Laerm;57251;52.248;4.812;2023-05-07T00:33:33;34.67;33.09;36.25;;
69608;Laerm;57251;52.248;4.812;2023-05-07T00:33:43;35.13;33.66;36.86;;
69608;Laerm;57251;52.248;4.812;2023-05-07T00:33:53;35.99;34.57;37.41;;
69608;Laerm;57251;52.248;4.812;2023-05-07T00:34:03;36.21;34.48;39.41;;
69608;Laerm;57251;52.248;4.812;2023-05-07T00:34:13;43.07;36.06;48.29;;
69608;Laerm;57251;52.248;4.812;2023-05-07T00:34:24;43.93;35.59;47.75;;
69608;Laerm;57251;52.248;4.812;2023-05-07T00:34:34;35.58;33.28;44.86;;
69608;Laerm;57251;52.248;4.812;2023-05-07T00:34:44;35.34;33.66;40.62;;
69608;Laerm;57251;52.248;4.812;2023-05-07T00:34:54;35.18;33.82;38.18;;
69608;Laerm;57251;52.248;4.812;2023-05-07T00:35:05;34.58;33.20;42.66;;
69608;Laerm;57251;52.248;4.812;2023-05-07T00:35:16;35.78;33.32;50.43;;
69608;Laerm;57251;52.248;4.812;2023-05-07T00:35:26;37.70;32.99;52.43;;
69608;Laerm;57251;52.248;4.812;2023-05-07T00:35:36;34.90;33.11;46.30;;
69608;Laerm;57251;52.248;4.812;2023-05-07T00:35:47;34.64;33.10;36.80;;
69608;Laerm;57251;52.248;4.812;2023-05-07T00:35:57;34.22;32.80;37.46;;
69608;Laerm;57251;52.248;4.812;2023-05-07T00:36:07;35.37;33.53;46.07;;
69608;Laerm;57251;52.248;4.812;2023-05-07T00:36:17;35.60;33.10;46.05;;
69608;Laerm;57251;52.248;4.812;2023-05-07T00:36:28;34.65;32.75;42.84;;
69608;Laerm;57251;52.248;4.812;2023-05-07T00:36:39;34.54;32.98;36.32;;
69608;Laerm;57251;52.248;4.812;2023-05-07T00:36:49;35.19;33.43;38.28;;
69608;Laerm;57251;52.248;4.812;2023-05-07T00:36:59;34.98;33.05;38.01;;
69608;Laerm;57251;52.248;4.812;2023-05-07T00:37:09;35.43;33.99;40.62;;
69608;Laerm;57251;52.248;4.812;2023-05-07T00:37:20;35.53;32.90;46.40;;
69608;Laerm;57251;52.248;4.812;2023-05-07T00:37:30;36.47;33.74;45.14;;
69608;Laerm;57251;52.248;4.812;2023-05-07T00:37:41;35.22;33.34;42.85;;
69608;Laerm;57251;52.248;4.812;2023-05-07T00:37:51;34.85;32.68;38.17;;
69608;Laerm;57251;52.248;4.812;2023-05-07T00:38:01;35.49;32.72;40.23;;
69608;Laerm;57251;52.248;4.812;2023-05-07T00:38:11;36.79;34.03;44.68;;
69608;Laerm;57251;52.248;4.812;2023-05-07T00:38:22;34.48;33.00;37.92;;
69608;Laerm;57251;52.248;4.812;2023-05-07T00:38:32;34.44;32.84;44.27;;
69608;Laerm;57251;52.248;4.812;2023-05-07T00:38:42;33.75;32.40;39.28;;
69608;Laerm;57251;52.248;4.812;2023-05-07T00:38:53;35.16;32.71;47.85;;
69608;Laerm;57251;52.248;4.812;2023-05-07T00:39:04;43.59;33.15;53.86;;
69608;Laerm;57251;52.248;4.812;2023-05-07T00:39:14;46.65;41.31;64.77;;
69608;Laerm;57251;52.248;4.812;2023-05-07T00:39:25;47.61;42.68;59.45;;
69608;Laerm;57251;52.248;4.812;2023-05-07T00:39:35;48.49;39.44;58.84;;
69608;Laerm;57251;52.248;4.812;2023-05-07T00:39:45;47.97;39.02;57.36;;
69608;Laerm;57251;52.248;4.812;2023-05-07T00:39:56;47.75;36.11;61.55;;
69608;Laerm;57251;52.248;4.812;2023-05-07T00:40:06;48.86;35.57;65.77;;
69608;Laerm;57251;52.248;4.812;2023-05-07T00:40:17;47.55;35.01;57.30;;
69608;Laerm;57251;52.248;4.812;2023-05-07T00:40:27;47.70;34.45;62.45;;
69608;Laerm;57251;52.248;4.812;2023-05-07T00:40:38;38.97;34.00;52.65;;
69608;Laerm;57251;52.248;4.812;2023-05-07T00:40:48;46.26;34.57;69.43;;
69608;Laerm;57251;52.248;4.812;2023-05-07T00:40:58;44.43;33.27;66.69;;
69608;Laerm;57251;52.248;4.812;2023-05-07T00:41:08;34.26;32.96;36.05;;
69608;Laerm;57251;52.248;4.812;2023-05-07T00:41:19;34.44;33.00;37.30;;
69608;Laerm;57251;52.248;4.812;2023-05-07T00:41:30;34.67;33.18;36.84;;
69608;Laerm;57251;52.248;4.812;2023-05-07T00:41:43;34.67;32.92;45.08;;
69608;Laerm;57251;52.248;4.812;2023-05-07T00:41:53;34.24;32.42;39.72;;
69608;Laerm;57251;52.248;4.812;2023-05-07T00:42:03;34.42;33.00;37.98;;
69608;Laerm;57251;52.248;4.812;2023-05-07T00:42:13;36.13;33.12;40.93;;
69608;Laerm;57251;52.248;4.812;2023-05-07T00:42:24;35.27;32.42;40.52;;
69608;Laerm;57251;52.248;4.812;2023-05-07T00:42:35;33.49;32.07;35.36;;
69608;Laerm;57251;52.248;4.812;2023-05-07T00:42:45;33.59;31.91;42.16;;
69608;Laerm;57251;52.248;4.812;2023-05-07T00:42:56;33.94;32.50;36.45;;
69608;Laerm;57251;52.248;4.812;2023-05-07T00:43:08;33.63;32.31;35.97;;
69608;Laerm;57251;52.248;4.812;2023-05-07T00:43:18;33.62;32.19;37.75;;
69608;Laerm;57251;52.248;4.812;2023-05-07T00:43:29;34.17;32.29;40.69;;
69608;Laerm;57251;52.248;4.812;2023-05-07T00:43:39;34.80;33.26;36.23;;
69608;Laerm;57251;52.248;4.812;2023-05-07T00:43:49;34.49;33.23;38.47;;
69608;Laerm;57251;52.248;4.812;2023-05-07T00:44:01;34.05;32.74;36.19;;
69608;Laerm;57251;52.248;4.812;2023-05-07T00:44:12;34.73;32.76;41.53;;
69608;Laerm;57251;52.248;4.812;2023-05-07T00:44:23;34.63;32.78;36.70;;
69608;Laerm;57251;52.248;4.812;2023-05-07T00:44:33;34.69;33.31;36.36;;
69608;Laerm;57251;52.248;4.812;2023-05-07T00:44:43;34.92;33.63;37.20;;
69608;Laerm;57251;52.248;4.812;2023-05-07T00:44:53;35.10;33.55;36.96;;
69608;Laerm;57251;52.248;4.812;2023-05-07T00:45:04;35.19;33.76;36.68;;
69608;Laerm;57251;52.248;4.812;2023-05-07T00:45:14;35.67;34.00;37.36;;
69608;Laerm;57251;52.248;4.812;2023-05-07T00:45:26;35.93;34.21;37.89;;
69608;Laerm;57251;52.248;4.812;2023-05-07T00:45:36;35.37;33.34;38.43;;
69608;Laerm;57251;52.248;4.812;2023-05-07T00:45:47;34.82;33.61;37.36;;
69608;Laerm;57251;52.248;4.812;2023-05-07T00:45:57;34.73;33.62;36.05;;
69608;Laerm;57251;52.248;4.812;2023-05-07T00:46:08;36.20;34.27;43.29;;
69608;Laerm;57251;52.248;4.812;2023-05-07T00:46:19;38.46;34.45;41.58;;
69608;Laerm;57251;52.248;4.812;2023-05-07T00:46:30;36.47;34.56;38.95;;
69608;Laerm;57251;52.248;4.812;2023-05-07T00:46:40;35.01;33.65;36.42;;
69608;Laerm;57251;52.248;4.812;2023-05-07T00:46:50;34.82;33.41;36.40;;
69608;Laerm;57251;52.248;4.812;2023-05-07T00:47:01;34.39;33.05;35.87;;
69608;Laerm;57251;52.248;4.812;2023-05-07T00:47:13;34.39;33.22;38.28;;
69608;Laerm;57251;52.248;4.812;2023-05-07T00:47:23;34.45;32.44;36.20;;
69608;Laerm;57251;52.248;4.812;2023-05-07T00:47:34;33.92;32.38;35.41;;
69608;Laerm;57251;52.248;4.812;2023-05-07T00:47:45;34.81;33.32;36.91;;
69608;Laerm;57251;52.248;4.812;2023-05-07T00:47:56;35.05;33.68;37.34;;
69608;Laerm;57251;52.248;4.812;2023-05-07T00:48:07;35.96;34.51;38.04;;
69608;Laerm;57251;52.248;4.812;2023-05-07T00:48:17;36.12;33.76;40.21;;
69608;Laerm;57251;52.248;4.812;2023-05-07T00:48:28;35.60;33.87;37.31;;
69608;Laerm;57251;52.248;4.812;2023-05-07T00:48:38;34.88;33.24;38.39;;
69608;Laerm;57251;52.248;4.812;2023-05-07T00:48:49;34.06;32.37;36.29;;
69608;Laerm;57251;52.248;4.812;2023-05-07T00:49:00;34.43;33.13;44.42;;
69608;Laerm;57251;52.248;4.812;2023-05-07T00:49:10;34.22;32.39;38.59;;
69608;Laerm;57251;52.248;4.812;2023-05-07T00:49:21;34.52;32.83;37.97;;
69608;Laerm;57251;52.248;4.812;2023-05-07T00:49:37;36.07;33.86;39.06;;
69608;Laerm;57251;52.248;4.812;2023-05-07T00:49:47;36.03;33.49;39.69;;
69608;Laerm;57251;52.248;4.812;2023-05-07T00:49:57;35.23;33.46;37.70;;
69608;Laerm;57251;52.248;4.812;2023-05-07T00:50:08;35.97;34.22;37.66;;
69608;Laerm;57251;52.248;4.812;2023-05-07T00:50:19;35.44;33.41;39.44;;
69608;Laerm;57251;52.248;4.812;2023-05-07T00:50:30;36.41;33.98;39.24;;
69608;Laerm;57251;52.248;4.812;2023-05-07T00:50:40;35.01;32.38;38.03;;
69608;Laerm;57251;52.248;4.812;2023-05-07T00:50:51;34.35;32.80;36.42;;
69608;Laerm;57251;52.248;4.812;2023-05-07T00:51:02;34.80;32.95;41.33;;
69608;Laerm;57251;52.248;4.812;2023-05-07T00:51:12;34.39;33.11;36.05;;
69608;Laerm;57251;52.248;4.812;2023-05-07T00:51:23;35.54;33.44;39.86;;
69608;Laerm;57251;52.248;4.812;2023-05-07T00:51:34;35.46;33.77;37.59;;
69608;Laerm;57251;52.248;4.812;2023-05-07T00:51:44;34.71;33.32;36.49;;
69608;Laerm;57251;52.248;4.812;2023-05-07T00:51:55;34.48;32.60;39.42;;
69608;Laerm;57251;52.248;4.812;2023-05-07T00:52:06;35.09;33.41;37.38;;
69608;Laerm;57251;52.248;4.812;2023-05-07T00:52:17;34.25;32.97;39.30;;
69608;Laerm;57251;52.248;4.812;2023-05-07T00:52:29;34.33;32.82;35.74;;
69608;Laerm;57251;52.248;4.812;2023-05-07T00:52:40;35.03;33.25;37.30;;
69608;Laerm;57251;52.248;4.812;2023-05-07T00:52:51;34.22;32.48;36.14;;
69608;Laerm;57251;52.248;4.812;2023-05-07T00:53:02;33.78;32.52;35.27;;
69608;Laerm;57251;52.248;4.812;2023-05-07T00:53:12;33.91;32.32;41.09;;
69608;Laerm;57251;52.248;4.812;2023-05-07T00:53:22;33.57;32.05;35.22;;
69608;Laerm;57251;52.248;4.812;2023-05-07T00:53:33;34.28;32.52;36.60;;
69608;Laerm;57251;52.248;4.812;2023-05-07T00:53:44;34.82;32.32;39.96;;
69608;Laerm;57251;52.248;4.812;2023-05-07T00:53:54;33.75;32.44;36.17;;
69608;Laerm;57251;52.248;4.812;2023-05-07T00:54:04;33.68;32.37;34.68;;
69608;Laerm;57251;52.248;4.812;2023-05-07T00:54:15;33.60;32.29;35.40;;
69608;Laerm;57251;52.248;4.812;2023-05-07T00:54:25;33.69;32.53;34.81;;
69608;Laerm;57251;52.248;4.812;2023-05-07T00:54:35;34.19;32.24;37.46;;
69608;Laerm;57251;52.248;4.812;2023-05-07T00:54:46;34.42;33.08;36.47;;
69608;Laerm;57251;52.248;4.812;2023-05-07T00:54:56;34.79;33.14;36.28;;
69608;Laerm;57251;52.248;4.812;2023-05-07T00:55:06;34.40;32.89;35.93;;
69608;Laerm;57251;52.248;4.812;2023-05-07T00:55:17;33.78;32.08;36.83;;
69608;Laerm;57251;52.248;4.812;2023-05-07T00:55:27;34.56;32.46;44.82;;
69608;Laerm;57251;52.248;4.812;2023-05-07T00:55:38;35.63;33.32;40.11;;
69608;Laerm;57251;52.248;4.812;2023-05-07T00:55:48;34.34;32.84;39.15;;
69608;Laerm;57251;52.248;4.812;2023-05-07T00:55:59;34.72;33.42;37.76;;
69608;Laerm;57251;52.248;4.812;2023-05-07T00:56:10;35.28;33.47;41.99;;
69608;Laerm;57251;52.248;4.812;2023-05-07T00:56:22;35.25;33.38;41.30;;
69608;Laerm;57251;52.248;4.812;2023-05-07T00:56:33;35.23;33.78;43.69;;
69608;Laerm;57251;52.248;4.812;2023-05-07T00:56:44;35.26;32.81;46.86;;
69608;Laerm;57251;52.248;4.812;2023-05-07T00:56:54;36.21;33.36;47.03;;
69608;Laerm;57251;52.248;4.812;2023-05-07T00:57:05;36.96;34.16;45.44;;
69608;Laerm;57251;52.248;4.812;2023-05-07T00:57:16;39.86;35.03;48.22;;
69608;Laerm;57251;52.248;4.812;2023-05-07T00:57:26;41.42;36.76;52.63;;
69608;Laerm;57251;52.248;4.812;2023-05-07T00:57:37;42.61;37.80;52.21;;
69608;Laerm;57251;52.248;4.812;2023-05-07T00:57:47;44.04;39.14;54.20;;
69608;Laerm;57251;52.248;4.812;2023-05-07T00:57:58;45.11;38.65;59.57;;
69608;Laerm;57251;52.248;4.812;2023-05-07T00:58:09;45.39;40.71;56.65;;
69608;Laerm;57251;52.248;4.812;2023-05-07T00:58:19;45.27;41.26;54.58;;
69608;Laerm;57251;52.248;4.812;2023-05-07T00:58:29;45.39;41.41;53.00;;
69608;Laerm;57251;52.248;4.812;2023-05-07T00:58:40;45.09;41.16;53.92;;